Time;durP1;ratioP1;P1;durP2;ratioP2;P2;SDS_P1;SDS_P2;PMS_P1;PMS_P2;Temp;Humidity;BMP_temperature;BMP_pressure;BME280_temperature;BME280_humidity;BME280_pressure;Samples;Min_cycle;Max_cycle;Signal;HPM_P1;HPM_P2
2022/01/01 00:02:19;;;;;;;31.42;17.88;;;;;;;12.07;100.00;101705.78;6177788;23;20020;-87
2022/01/01 00:04:45;;;;;;;40.20;20.90;;;;;;;12.08;100.00;101704.78;6177782;23;20017;-87
2022/01/01 00:07:12;;;;;;;39.10;20.92;;;;;;;12.08;100.00;101710.16;6207586;23;20027;-86
2022/01/01 00:09:41;;;;;;;38.83;19.38;;;;;;;12.09;100.00;101700.25;6179891;23;20313;-87
2022/01/01 00:12:07;;;;;;;33.03;18.17;;;;;;;12.07;100.00;101688.78;6206695;23;20112;-87
2022/01/01 00:14:34;;;;;;;36.08;19.98;;;;;;;12.06;100.00;101697.88;6178993;23;20248;-87
2022/01/01 00:16:59;;;;;;;38.40;20.90;;;;;;;12.04;100.00;101705.25;6180366;23;20119;-87
2022/01/01 00:19:26;;;;;;;43.17;25.15;;;;;;;12.03;100.00;101701.72;6154814;23;20048;-86
2022/01/01 00:21:51;;;;;;;43.88;27.10;;;;;;;12.01;100.00;101700.16;6154564;23;20012;-86
2022/01/01 00:24:17;;;;;;;51.33;29.08;;;;;;;12.00;100.00;101701.16;6205450;23;20032;-87
2022/01/01 00:26:43;;;;;;;54.58;34.25;;;;;;;11.96;100.00;101704.13;6153603;23;20049;-85
2022/01/01 00:29:16;;;;;;;57.47;34.17;;;;;;;11.95;100.00;101707.00;6206882;23;20012;-87
2022/01/01 00:31:41;;;;;;;49.50;35.45;;;;;;;11.95;100.00;101707.84;6178091;23;20096;-86
2022/01/01 00:34:06;;;;;;;48.63;31.60;;;;;;;11.92;100.00;101704.63;6155705;23;20092;-86
2022/01/01 00:36:32;;;;;;;52.90;30.23;;;;;;;11.93;100.00;101715.19;6205891;23;20074;-87
2022/01/01 00:39:01;;;;;;;47.95;31.23;;;;;;;11.94;100.00;101705.31;6155076;23;20026;-86
2022/01/01 00:41:26;;;;;;;44.95;27.23;;;;;;;11.91;100.00;101703.78;6180373;23;20024;-88
2022/01/01 00:43:52;;;;;;;47.72;28.80;;;;;;;11.92;100.00;101713.53;6153832;23;20025;-87
2022/01/01 00:46:17;;;;;;;49.13;32.25;;;;;;;11.91;100.00;101727.09;6181088;23;20044;-88
2022/01/01 00:48:46;;;;;;;51.97;32.38;;;;;;;11.91;100.00;101722.59;6204364;23;20016;-85
2022/01/01 00:51:11;;;;;;;46.75;28.63;;;;;;;11.90;100.00;101728.13;6206358;23;20020;-89
2022/01/01 00:53:39;;;;;;;44.83;30.40;;;;;;;11.90;100.00;101737.03;6154683;23;20035;-86
2022/01/01 00:56:04;;;;;;;45.33;31.30;;;;;;;11.90;100.00;101753.16;6207134;23;20096;-86
2022/01/01 00:58:30;;;;;;;46.15;29.00;;;;;;;11.90;100.00;101747.78;6154997;23;20036;-89
2022/01/01 01:00:55;;;;;;;45.97;27.40;;;;;;;11.89;100.00;101739.88;6180089;23;20016;-87
2022/01/01 01:03:20;;;;;;;40.97;26.80;;;;;;;11.88;100.00;101739.03;6181192;23;20028;-86
2022/01/01 01:05:47;;;;;;;45.50;25.27;;;;;;;11.87;100.00;101749.94;6156218;23;20052;-86
2022/01/01 01:08:15;;;;;;;40.95;25.67;;;;;;;11.86;100.00;101735.66;6207622;23;20027;-87
2022/01/01 01:10:41;;;;;;;40.80;23.05;;;;;;;11.86;100.00;101746.41;6205869;23;20043;-86
2022/01/01 01:13:08;;;;;;;38.08;22.75;;;;;;;11.87;100.00;101756.16;6182419;23;20021;-86
2022/01/01 01:15:34;;;;;;;41.08;23.23;;;;;;;11.86;100.00;101743.72;6206758;23;20013;-87
2022/01/01 01:18:01;;;;;;;32.60;19.90;;;;;;;11.87;100.00;101748.09;6207368;23;20016;-88
2022/01/01 01:20:28;;;;;;;35.13;22.20;;;;;;;11.88;100.00;101744.41;6179354;23;20103;-88
2022/01/01 01:22:54;;;;;;;41.85;23.38;;;;;;;11.88;100.00;101738.16;6155361;23;20032;-87
2022/01/01 01:25:21;;;;;;;39.78;20.85;;;;;;;11.87;100.00;101741.88;6208294;23;20447;-86
2022/01/01 01:27:49;;;;;;;38.00;21.45;;;;;;;11.86;100.00;101724.03;6181048;23;20024;-86
2022/01/01 01:30:16;;;;;;;40.00;20.13;;;;;;;11.85;100.00;101733.94;6155119;23;20024;-85
2022/01/01 01:32:43;;;;;;;38.75;21.17;;;;;;;11.84;100.00;101732.22;6181276;23;20020;-87
2022/01/01 01:35:10;;;;;;;41.28;21.63;;;;;;;11.83;100.00;101725.16;6179747;23;20398;-86
2022/01/01 01:37:37;;;;;;;41.08;22.77;;;;;;;11.83;100.00;101730.53;6180959;23;20021;-88
2022/01/01 01:40:05;;;;;;;41.78;21.40;;;;;;;11.82;100.00;101734.19;6206986;23;20039;-87
2022/01/01 01:42:31;;;;;;;42.88;21.42;;;;;;;11.82;100.00;101730.66;6204860;23;20013;-87
2022/01/01 01:44:57;;;;;;;42.13;22.20;;;;;;;11.82;100.00;101736.03;6182352;23;20091;-87
2022/01/01 01:47:30;;;;;;;39.13;23.50;;;;;;;11.81;100.00;101742.44;6206961;23;20092;-86
2022/01/01 01:49:57;;;;;;;41.47;22.13;;;;;;;11.81;100.00;101747.81;6207504;23;20012;-86
2022/01/01 01:52:24;;;;;;;44.72;23.50;;;;;;;11.83;100.00;101743.97;6157394;23;20017;-86
2022/01/01 01:54:55;;;;;;;44.35;24.42;;;;;;;11.83;100.00;101756.59;6207925;23;20067;-89
2022/01/01 01:57:22;;;;;;;44.90;22.95;;;;;;;11.81;100.00;101747.81;6205112;23;20021;-88
2022/01/01 01:59:51;;;;;;;44.92;25.00;;;;;;;11.80;100.00;101746.13;6181782;23;20088;-87
2022/01/01 02:02:22;;;;;;;42.75;26.02;;;;;;;11.80;100.00;101746.13;6158104;23;20447;-87
2022/01/01 02:04:47;;;;;;;45.33;24.45;;;;;;;11.79;100.00;101756.00;6184671;23;20043;-86
2022/01/01 02:07:15;;;;;;;47.88;27.83;;;;;;;11.80;100.00;101755.03;6182661;23;20044;-86
2022/01/01 02:09:47;;;;;;;45.10;23.92;;;;;;;11.78;100.00;101748.94;6207928;23;20074;-88
2022/01/01 02:12:15;;;;;;;46.90;26.95;;;;;;;11.80;100.00;101763.09;6182206;23;20012;-87
2022/01/01 02:15:25;;;;;;;52.97;27.52;;;;;;;11.81;100.00;101758.56;6156751;23;20036;-88
2022/01/01 02:17:36;;;;;;;48.17;25.70;;;;;;;11.79;100.00;101749.78;6164973;23;20016;-86
2022/01/01 02:20:14;;;;;;;53.80;28.63;;;;;;;11.79;100.00;101764.09;6157021;23;20016;-87
2022/01/01 02:22:47;;;;;;;49.17;29.20;;;;;;;11.78;100.00;101767.78;6179331;23;20020;-86
2022/01/01 02:25:19;;;;;;;52.60;32.50;;;;;;;11.79;100.00;101761.38;6182417;23;20247;-86
2022/01/01 02:27:45;;;;;;;54.08;31.50;;;;;;;11.80;100.00;101752.34;6180700;23;20028;-87
2022/01/01 02:30:14;;;;;;;49.08;28.95;;;;;;;11.80;100.00;101757.72;6210071;23;20017;-86
2022/01/01 02:32:50;;;;;;;54.78;30.27;;;;;;;11.79;100.00;101747.94;6182503;23;20529;-86
2022/01/01 02:35:18;;;;;;;58.67;32.45;;;;;;;11.80;100.00;101741.59;6157185;23;20238;-85
2022/01/01 02:37:49;;;;;;;54.38;28.65;;;;;;;11.81;100.00;101742.44;6156914;23;20020;-85
2022/01/01 02:40:18;;;;;;;54.65;29.63;;;;;;;11.81;100.00;101753.19;6157464;23;20031;-86
2022/01/01 02:42:46;;;;;;;52.78;30.77;;;;;;;11.80;100.00;101752.34;6192684;23;20099;-85
2022/01/01 02:45:23;;;;;;;61.13;31.30;;;;;;;11.80;100.00;101759.56;6208706;23;20063;-87
2022/01/01 02:47:51;;;;;;;53.03;30.40;;;;;;;11.79;100.00;101765.94;6133086;23;20012;-86
2022/01/01 02:50:19;;;;;;;50.75;30.80;;;;;;;11.78;100.00;101769.63;6157139;23;20523;-86
2022/01/01 02:52:49;;;;;;;55.03;29.73;;;;;;;11.76;100.00;101775.13;6156033;23;20027;-85
2022/01/01 02:55:15;;;;;;;49.72;28.52;;;;;;;11.75;100.00;101773.44;6158490;23;20447;-85
2022/01/01 02:57:41;;;;;;;55.20;26.73;;;;;;;11.76;100.00;101772.44;6156302;23;20019;-85
2022/01/01 03:00:08;;;;;;;55.67;31.40;;;;;;;11.78;100.00;101775.00;6156535;23;20021;-84
2022/01/01 03:02:35;;;;;;;55.05;31.95;;;;;;;11.77;100.00;101771.47;6178390;23;20102;-85
2022/01/01 03:05:04;;;;;;;51.28;28.55;;;;;;;11.75;100.00;101782.34;6182519;23;20016;-86
2022/01/01 03:07:29;;;;;;;57.22;31.00;;;;;;;11.77;100.00;101774.16;6132353;23;20067;-87
2022/01/01 03:09:55;;;;;;;55.97;31.85;;;;;;;11.76;100.00;101767.06;6179927;23;20435;-86
2022/01/01 03:12:21;;;;;;;60.03;33.60;;;;;;;11.77;100.00;101763.41;6155951;23;20009;-86
2022/01/01 03:14:46;;;;;;;56.97;34.53;;;;;;;11.77;100.00;101767.91;6180940;23;20090;-87
2022/01/01 03:17:12;;;;;;;67.97;36.83;;;;;;;11.77;100.00;101765.22;6131921;23;20028;-87
2022/01/01 03:19:38;;;;;;;59.63;33.58;;;;;;;11.74;100.00;101771.78;6155641;23;20028;-85
2022/01/01 03:22:05;;;;;;;64.78;37.63;;;;;;;11.74;100.00;101764.53;6205880;23;20017;-85
2022/01/01 03:24:31;;;;;;;65.15;38.42;;;;;;;11.75;100.00;101770.75;6179552;23;20051;-85
2022/01/01 03:26:57;;;;;;;63.80;37.20;;;;;;;11.75;100.00;101770.75;6206771;23;20455;-87
2022/01/01 03:29:22;;;;;;;64.38;35.85;;;;;;;11.74;100.00;101769.09;6206458;23;20048;-85
2022/01/01 03:31:48;;;;;;;66.13;36.33;;;;;;;11.74;100.00;101766.38;6154341;23;20068;-87
2022/01/01 03:34:13;;;;;;;67.82;35.85;;;;;;;11.73;100.00;101768.22;6155662;23;20012;-85
2022/01/01 03:36:40;;;;;;;66.63;33.95;;;;;;;11.74;100.00;101759.16;6154792;23;20013;-87
2022/01/01 03:39:07;;;;;;;65.80;38.88;;;;;;;11.74;100.00;101763.69;6180076;23;20100;-87
2022/01/01 03:41:32;;;;;;;69.55;37.67;;;;;;;11.73;100.00;101762.00;6155243;23;20439;-87
2022/01/01 03:43:57;;;;;;;64.80;36.08;;;;;;;11.73;100.00;101762.00;6206663;23;20087;-84
2022/01/01 03:46:23;;;;;;;65.75;36.75;;;;;;;11.71;100.00;101756.78;6181306;23;20070;-86
2022/01/01 03:48:48;;;;;;;63.22;38.83;;;;;;;11.72;100.00;101763.00;6207715;23;20044;-85
2022/01/01 03:51:14;;;;;;;69.63;40.95;;;;;;;11.71;100.00;101758.63;6183608;23;20370;-87
2022/01/01 03:53:39;;;;;;;62.13;37.03;;;;;;;11.69;100.00;101761.44;6183346;23;20017;-85
2022/01/01 03:56:05;;;;;;;57.75;34.10;;;;;;;11.69;100.00;101755.22;6134588;23;20074;-87
2022/01/01 03:58:30;;;;;;;63.58;37.40;;;;;;;11.67;100.00;101743.75;6184743;23;20044;-85
2022/01/01 04:00:55;;;;;;;62.97;38.22;;;;;;;11.65;100.00;101748.44;6133250;23;20012;-86
2022/01/01 04:03:21;;;;;;;64.15;37.10;;;;;;;11.63;100.00;101740.53;6159089;23;20076;-86
2022/01/01 04:05:47;;;;;;;62.88;36.88;;;;;;;11.63;100.00;101743.22;6210122;23;20486;-88
2022/01/01 04:08:13;;;;;;;64.68;35.78;;;;;;;11.63;100.00;101751.28;6210975;23;20023;-85
2022/01/01 04:10:39;;;;;;;58.83;33.00;;;;;;;11.62;100.00;101751.41;6209833;23;20027;-87
2022/01/01 04:13:07;;;;;;;60.67;32.72;;;;;;;11.61;100.00;101747.88;6210839;23;20020;-85
2022/01/01 04:15:35;;;;;;;57.80;34.65;;;;;;;11.63;100.00;101758.50;6184352;23;20066;-86
2022/01/01 04:18:06;;;;;;;68.38;30.85;;;;;;;11.61;100.00;101752.44;6159482;23;20017;-85
2022/01/01 04:20:31;;;;;;;58.05;33.38;;;;;;;11.61;100.00;101771.25;6184992;23;20016;-86
2022/01/01 04:22:57;;;;;;;62.55;31.00;;;;;;;11.61;100.00;101755.94;6183652;23;20017;-85
2022/01/01 04:25:24;;;;;;;60.95;32.10;;;;;;;11.61;100.00;101765.88;6209431;23;20020;-87
2022/01/01 04:27:52;;;;;;;62.83;34.28;;;;;;;11.60;100.00;101758.81;6209645;23;20048;-86
2022/01/01 04:30:18;;;;;;;55.20;30.40;;;;;;;11.57;100.00;101756.41;6182038;23;20017;-85
2022/01/01 04:32:44;;;;;;;59.17;32.92;;;;;;;11.57;100.00;101751.03;6157828;23;20032;-87
2022/01/01 04:35:10;;;;;;;61.55;33.95;;;;;;;11.58;100.00;101741.97;6184592;23;20036;-86
2022/01/01 04:37:37;;;;;;;54.85;33.97;;;;;;;11.55;100.00;101759.22;6161747;23;20028;-85
2022/01/01 04:40:06;;;;;;;54.13;29.85;;;;;;;11.52;100.00;101751.47;6185064;23;20375;-85
2022/01/01 04:42:32;;;;;;;56.92;31.98;;;;;;;11.52;100.00;101755.00;6184931;23;20044;-85
2022/01/01 04:44:58;;;;;;;58.08;28.98;;;;;;;11.50;100.00;101762.34;6161122;23;20431;-85
2022/01/01 04:47:27;;;;;;;57.67;32.53;;;;;;;11.49;100.00;101781.34;6185900;23;20020;-85
2022/01/01 04:49:52;;;;;;;;;;;;;;;11.49;100.00;101782.16;6185527;23;20464;-86
2022/01/01 04:52:18;;;;;;;54.20;29.58;;;;;;;11.43;100.00;101788.13;6210849;23;19908;-86
2022/01/01 04:54:44;;;;;;;48.35;28.95;;;;;;;11.41;100.00;101781.22;6211796;23;20332;-85
2022/01/01 04:57:11;;;;;;;58.60;31.38;;;;;;;11.44;100.00;101789.81;6212579;23;20351;-86
2022/01/01 04:59:38;;;;;;;63.50;33.55;;;;;;;11.44;100.00;101789.81;6160430;23;20020;-87
2022/01/01 05:02:04;;;;;;;51.25;31.27;;;;;;;11.45;100.00;101779.91;6160495;23;20016;-86
2022/01/01 05:04:29;;;;;;;53.17;32.28;;;;;;;11.45;100.00;101788.84;6185654;23;20013;-86
2022/01/01 05:06:55;;;;;;;59.33;31.85;;;;;;;11.45;100.00;101796.03;6185485;23;20090;-87
2022/01/01 05:09:21;;;;;;;58.10;30.55;;;;;;;11.43;100.00;101801.56;6185377;23;20016;-87
2022/01/01 05:11:47;;;;;;;54.97;28.73;;;;;;;11.44;100.00;101797.88;6184644;23;20040;-86
2022/01/01 05:14:13;;;;;;;51.75;29.85;;;;;;;11.44;100.00;101792.50;6212552;23;20019;-85
2022/01/01 05:16:39;;;;;;;49.30;27.23;;;;;;;11.45;100.00;101775.41;6211741;23;20095;-87
2022/01/01 05:19:05;;;;;;;52.40;29.58;;;;;;;11.47;100.00;101780.63;6161352;23;20083;-87
2022/01/01 05:21:33;;;;;;;52.90;28.40;;;;;;;11.46;100.00;101782.47;6185260;23;20017;-87
2022/01/01 05:24:01;;;;;;;49.97;27.63;;;;;;;11.45;100.00;101791.53;6209739;23;20070;-87
2022/01/01 05:26:26;;;;;;;50.03;24.70;;;;;;;11.46;100.00;101800.44;6185500;23;20023;-86
2022/01/01 05:28:51;;;;;;;50.72;26.73;;;;;;;11.47;100.00;101794.06;6185079;23;20012;-88
2022/01/01 05:31:19;;;;;;;47.80;28.23;;;;;;;11.47;100.00;101794.91;6185802;23;20147;-87
2022/01/01 05:33:48;;;;;;;49.25;28.17;;;;;;;11.46;100.00;101798.59;6211234;23;20027;-86
2022/01/01 05:36:14;;;;;;;50.90;25.65;;;;;;;11.46;100.00;101790.53;6212312;23;20009;-86
2022/01/01 05:38:41;;;;;;;48.22;25.88;;;;;;;11.46;100.00;101777.09;6211474;23;20017;-87
2022/01/01 05:41:06;;;;;;;49.03;25.33;;;;;;;11.47;100.00;101773.41;6211676;23;20024;-87
2022/01/01 05:43:32;;;;;;;46.08;24.77;;;;;;;11.47;100.00;101769.88;6212178;23;20025;-85
2022/01/01 05:45:57;;;;;;;45.42;21.50;;;;;;;11.47;100.00;101773.41;6159657;23;20210;-87
2022/01/01 05:48:22;;;;;;;51.05;24.20;;;;;;;11.48;100.00;101775.13;6186027;23;20440;-86
2022/01/01 05:50:48;;;;;;;45.92;23.05;;;;;;;11.48;100.00;101775.13;6184340;23;20343;-86
2022/01/01 05:53:15;;;;;;;45.95;22.92;;;;;;;11.48;100.00;101774.28;6211910;23;20100;-87
2022/01/01 05:55:40;;;;;;;42.80;23.73;;;;;;;11.49;100.00;101766.03;6185136;23;20017;-86
2022/01/01 05:58:05;;;;;;;40.92;21.75;;;;;;;11.50;100.00;101775.78;6161126;23;20067;-86
2022/01/01 06:00:33;;;;;;;43.53;22.17;;;;;;;11.50;100.00;101775.78;6182070;23;20016;-86
2022/01/01 06:02:58;;;;;;;45.33;21.05;;;;;;;11.50;100.00;101780.31;6156637;23;20096;-86
2022/01/01 06:05:26;;;;;;;40.35;21.30;;;;;;;11.52;100.00;101787.25;6158981;23;20376;-85
2022/01/01 06:07:52;;;;;;;42.88;22.45;;;;;;;11.51;100.00;101790.94;6180484;23;20470;-85
2022/01/01 06:10:28;;;;;;;48.83;21.80;;;;;;;11.50;100.00;101786.53;6208347;23;20351;-85
2022/01/01 06:12:56;;;;;;;35.70;20.25;;;;;;;11.50;100.00;101789.22;6181418;23;20455;-87
2022/01/01 06:15:22;;;;;;;40.72;20.67;;;;;;;11.51;100.00;101795.47;6208652;23;20013;-85
2022/01/01 06:17:49;;;;;;;38.42;19.75;;;;;;;11.50;100.00;101797.28;6206909;23;20020;-87
2022/01/01 06:20:15;;;;;;;39.95;19.70;;;;;;;11.52;100.00;101803.38;6157112;23;20030;-86
2022/01/01 06:22:42;;;;;;;35.28;18.27;;;;;;;11.53;100.00;101804.22;6206264;23;20099;-85
2022/01/01 06:25:08;;;;;;;34.65;18.17;;;;;;;11.53;100.00;101797.00;6207531;23;20087;-86
2022/01/01 06:27:34;;;;;;;37.83;18.73;;;;;;;11.52;100.00;101791.78;6181264;23;20016;-85
2022/01/01 06:30:01;;;;;;;33.00;17.45;;;;;;;11.52;100.00;101800.69;6180257;23;20082;-86
2022/01/01 06:32:29;;;;;;;32.75;17.75;;;;;;;11.53;100.00;101794.31;6206529;23;20025;-86
2022/01/01 06:34:54;;;;;;;36.53;15.33;;;;;;;11.55;100.00;101801.41;6155557;23;20020;-85
2022/01/01 06:37:20;;;;;;;37.08;15.40;;;;;;;11.56;100.00;101797.72;6208498;23;20244;-86
2022/01/01 06:39:46;;;;;;;29.63;14.63;;;;;;;11.58;100.00;101795.72;6155894;23;20168;-86
2022/01/01 06:42:11;;;;;;;25.13;14.35;;;;;;;11.58;100.00;101795.72;6156036;23;20024;-87
2022/01/01 06:44:37;;;;;;;34.38;16.40;;;;;;;11.59;100.00;101798.25;6207843;23;20016;-87
2022/01/01 06:47:03;;;;;;;29.83;14.25;;;;;;;11.60;100.00;101793.75;6157409;23;20017;-86
2022/01/01 06:49:29;;;;;;;29.83;14.75;;;;;;;11.61;100.00;101800.81;6181861;23;20013;-88
2022/01/01 06:51:55;;;;;;;27.70;15.40;;;;;;;11.63;100.00;101794.31;6180987;23;20021;-88
2022/01/01 06:54:21;;;;;;;26.75;12.75;;;;;;;11.64;100.00;101804.06;6131820;23;20017;-86
2022/01/01 06:56:46;;;;;;;26.35;13.82;;;;;;;11.64;100.00;101803.22;6155531;23;20439;-87
2022/01/01 06:59:11;;;;;;;31.25;14.70;;;;;;;11.65;100.00;101794.13;6205671;23;20024;-87
2022/01/01 07:01:37;;;;;;;36.97;13.68;;;;;;;11.64;100.00;101790.59;6179837;23;20534;-87
2022/01/01 07:04:06;;;;;;;25.23;12.25;;;;;;;11.66;100.00;101795.84;6180871;23;20096;-86
2022/01/01 07:06:34;;;;;;;25.55;12.57;;;;;;;11.66;100.00;101799.38;6156064;23;20019;-88
2022/01/01 07:09:00;;;;;;;25.05;12.75;;;;;;;11.66;100.00;101801.22;6180594;23;20469;-87
2022/01/01 07:11:26;;;;;;;25.05;12.23;;;;;;;11.66;100.00;101799.38;6181615;23;20095;-88
2022/01/01 07:13:53;;;;;;;24.58;10.98;;;;;;;11.67;100.00;101800.22;6206382;23;20443;-86
2022/01/01 07:16:20;;;;;;;19.55;11.63;;;;;;;11.68;100.00;101796.53;6207212;23;20019;-86
2022/01/01 07:18:47;;;;;;;25.17;11.20;;;;;;;11.69;100.00;101800.94;6131745;23;20474;-87
2022/01/01 07:21:14;;;;;;;23.35;10.30;;;;;;;11.70;100.00;101808.00;6207661;23;20056;-87
2022/01/01 07:23:42;;;;;;;21.15;11.88;;;;;;;11.70;100.00;101811.53;6207818;23;20438;-87
2022/01/01 07:26:09;;;;;;;18.80;9.83;;;;;;;11.71;100.00;101812.41;6155911;23;20017;-87
2022/01/01 07:28:34;;;;;;;20.67;9.85;;;;;;;11.72;100.00;101819.47;6181379;23;20021;-87
2022/01/01 07:31:01;;;;;;;18.90;10.68;;;;;;;11.72;100.00;101819.47;6204319;23;20095;-86
2022/01/01 07:33:27;;;;;;;22.52;10.15;;;;;;;11.72;100.00;101820.31;6205906;23;20024;-86
2022/01/01 07:35:58;;;;;;;18.55;9.60;;;;;;;11.73;100.00;101823.84;6179217;23;20427;-85
2022/01/01 07:38:25;;;;;;;20.48;10.20;;;;;;;11.73;100.00;101826.53;6181247;23;20414;-87
2022/01/01 07:40:51;;;;;;;18.90;10.10;;;;;;;11.75;100.00;101827.22;6155184;23;20023;-86
2022/01/01 07:43:19;;;;;;;20.85;9.50;;;;;;;11.73;100.00;101832.75;6156762;23;20355;-85
2022/01/01 07:45:45;;;;;;;20.58;9.68;;;;;;;11.75;100.00;101840.69;6179957;23;20347;-84
2022/01/01 07:48:11;;;;;;;22.13;9.50;;;;;;;11.75;100.00;101838.81;6207475;23;20020;-85
2022/01/01 07:50:37;;;;;;;14.95;8.10;;;;;;;11.77;100.00;101840.50;6180288;23;20020;-86
2022/01/01 07:53:05;;;;;;;21.50;9.93;;;;;;;11.80;100.00;101846.47;6179059;23;20020;-85
2022/01/01 07:55:32;;;;;;;17.73;10.10;;;;;;;11.81;100.00;101840.09;6207569;23;20091;-89
2022/01/01 07:58:05;;;;;;;20.70;9.88;;;;;;;11.81;100.00;101833.88;6180313;23;20063;-86
2022/01/01 08:00:31;;;;;;;18.10;9.10;;;;;;;11.81;100.00;101834.72;6179263;23;20047;-86
2022/01/01 08:02:57;;;;;;;20.10;8.50;;;;;;;11.84;100.00;101842.47;6180019;23;20028;-86
2022/01/01 08:05:23;;;;;;;19.77;8.15;;;;;;;11.84;100.00;101844.31;6180941;23;20036;-86
2022/01/01 08:07:49;;;;;;;19.42;8.88;;;;;;;11.85;100.00;101838.81;6179896;23;20435;-85
2022/01/01 08:10:14;;;;;;;20.23;8.07;;;;;;;11.86;100.00;101845.06;6131493;23;20409;-86
2022/01/01 08:12:42;;;;;;;15.18;8.45;;;;;;;11.86;100.00;101856.66;6157450;23;20009;-87
2022/01/01 08:15:09;;;;;;;18.00;8.90;;;;;;;11.87;100.00;101861.03;6157220;23;20016;-87
2022/01/01 08:17:37;;;;;;;22.95;9.40;;;;;;;11.86;100.00;101861.22;6182327;23;20351;-87
2022/01/01 08:20:03;;;;;;;16.13;7.85;;;;;;;11.85;100.00;101857.66;6156903;23;20024;-86
2022/01/01 08:22:28;;;;;;;18.35;9.13;;;;;;;11.87;100.00;101857.50;6157378;23;20063;-86
2022/01/01 08:24:54;;;;;;;16.55;8.85;;;;;;;11.87;100.00;101850.28;6208782;23;20451;-86
2022/01/01 08:27:19;;;;;;;16.48;7.93;;;;;;;11.88;100.00;101852.00;6181748;23;20075;-86
2022/01/01 08:29:45;;;;;;;16.20;8.68;;;;;;;11.88;100.00;101852.00;6131514;23;20020;-86
2022/01/01 08:32:11;;;;;;;17.98;8.65;;;;;;;11.89;100.00;101853.69;6208141;23;20020;-86
2022/01/01 08:34:36;;;;;;;16.90;9.43;;;;;;;11.88;100.00;101869.94;6208395;23;20024;-87
2022/01/01 08:37:03;;;;;;;20.48;7.90;;;;;;;11.87;100.00;101866.41;6207280;23;20112;-86
2022/01/01 08:39:28;;;;;;;13.55;7.20;;;;;;;11.88;100.00;101865.44;6156732;23;20020;-85
2022/01/01 08:41:55;;;;;;;14.27;8.73;;;;;;;11.90;100.00;101871.50;6207312;23;20044;-87
2022/01/01 08:44:20;;;;;;;15.50;7.45;;;;;;;11.91;100.00;101867.84;6205475;23;20049;-87
2022/01/01 08:46:48;;;;;;;15.98;7.85;;;;;;;11.91;100.00;101873.22;6204958;23;20028;-87
2022/01/01 08:49:18;;;;;;;17.30;8.68;;;;;;;11.92;100.00;101869.53;6209471;23;20017;-88
2022/01/01 08:51:44;;;;;;;19.00;7.32;;;;;;;11.91;100.00;101865.16;6210239;23;20017;-86
2022/01/01 08:54:12;;;;;;;16.25;7.53;;;;;;;11.92;100.00;101869.53;6162272;23;20016;-86
2022/01/01 08:56:38;;;;;;;18.77;7.27;;;;;;;11.94;100.00;101872.94;6213120;23;20074;-86
2022/01/01 08:59:10;;;;;;;14.73;6.85;;;;;;;11.94;100.00;101855.94;6183287;23;20398;-87
2022/01/01 09:01:35;;;;;;;15.63;6.80;;;;;;;11.96;100.00;101853.94;6209044;23;20070;-89
2022/01/01 09:04:02;;;;;;;13.68;6.75;;;;;;;11.97;100.00;101858.34;6181848;23;20020;-86
2022/01/01 09:06:33;;;;;;;13.82;6.70;;;;;;;12.01;100.00;101858.88;6208305;23;20103;-86
2022/01/01 09:09:00;;;;;;;12.65;6.32;;;;;;;12.01;100.00;101850.81;6207215;23;20023;-85
2022/01/01 09:11:29;;;;;;;12.55;6.07;;;;;;;12.03;100.00;101848.84;6182923;23;20023;-85
2022/01/01 09:14:09;;;;;;;12.07;6.50;;;;;;;12.06;100.00;101848.53;6182360;23;20052;-86
2022/01/01 09:16:34;;;;;;;14.77;6.13;;;;;;;12.06;100.00;101849.38;6134539;23;20017;-87
2022/01/01 09:19:10;;;;;;;15.32;6.47;;;;;;;12.09;100.00;101859.00;6206699;23;20016;-85
2022/01/01 09:21:39;;;;;;;17.27;6.10;;;;;;;12.08;100.00;101857.28;6207974;23;20106;-87
2022/01/01 09:24:05;;;;;;;15.70;6.75;;;;;;;12.09;100.00;101846.38;6133605;23;20012;-86
2022/01/01 09:26:30;;;;;;;15.85;5.95;;;;;;;12.12;100.00;101846.09;6185780;23;20039;-86
2022/01/01 09:28:56;;;;;;;12.52;4.93;;;;;;;12.13;100.00;101849.63;6183629;23;20096;-86
2022/01/01 09:31:22;;;;;;;18.92;6.32;;;;;;;12.16;100.00;101850.16;6183550;23;20079;-88
2022/01/01 09:33:47;;;;;;;16.95;5.80;;;;;;;12.18;100.00;101858.94;6135963;23;20033;-85
2022/01/01 09:36:15;;;;;;;9.85;5.00;;;;;;;12.21;100.00;101859.66;6186008;23;20017;-88
2022/01/01 09:38:40;;;;;;;13.15;5.25;;;;;;;12.23;100.00;101866.59;6160595;23;20024;-87
2022/01/01 09:41:06;;;;;;;12.85;5.80;;;;;;;12.25;100.00;101869.09;6209768;23;20016;-89
2022/01/01 09:43:40;;;;;;;17.27;5.75;;;;;;;12.25;100.00;101875.34;6183618;23;20020;-87
2022/01/01 09:46:08;;;;;;;13.77;5.63;;;;;;;12.26;100.00;101876.22;6184260;23;20020;-86
2022/01/01 09:48:34;;;;;;;12.10;4.80;;;;;;;12.28;100.00;101869.66;6185237;23;20036;-87
2022/01/01 09:51:02;;;;;;;9.95;4.90;;;;;;;12.31;100.00;101865.81;6205987;23;20023;-87
2022/01/01 09:53:43;;;;;;;13.57;4.88;;;;;;;12.37;100.00;101865.22;6181829;23;20375;-86
2022/01/01 09:56:10;;;;;;;10.40;4.40;;;;;;;12.40;100.00;101868.47;6130574;23;20024;-86
2022/01/01 09:58:41;;;;;;;11.07;4.35;;;;;;;12.41;100.00;101867.47;6208014;23;20017;-85
2022/01/01 10:01:09;;;;;;;9.68;4.50;;;;;;;12.45;100.00;101864.47;6206654;23;20546;-85
2022/01/01 10:03:44;;;;;;;11.37;4.70;;;;;;;12.46;100.00;101858.06;6181177;23;20067;-86
2022/01/01 10:06:17;;;;;;;13.95;4.53;;;;;;;12.48;100.00;101856.09;6160699;23;20031;-86
2022/01/01 10:08:56;;;;;;;11.35;4.43;;;;;;;12.49;100.00;101849.72;6182222;23;20095;-87
2022/01/01 10:11:22;;;;;;;9.27;4.05;;;;;;;12.50;100.00;101846.03;6209801;23;20075;-87
2022/01/01 10:13:48;;;;;;;11.77;4.13;;;;;;;12.49;100.00;101847.03;6209511;23;20023;-86
2022/01/01 10:16:15;;;;;;;12.73;5.05;;;;;;;12.51;100.00;101842.31;6185399;23;20034;-86
2022/01/01 10:18:46;;;;;;;13.95;5.00;;;;;;;12.50;100.00;101829.88;6211485;23;20095;-86
2022/01/01 10:21:14;;;;;;;11.77;4.03;;;;;;;12.49;100.00;101823.66;6158596;23;20017;-85
2022/01/01 10:23:49;;;;;;;8.87;3.97;;;;;;;12.51;100.00;101831.56;6160774;23;20079;-87
2022/01/01 10:29:14;;;;;;;11.02;4.00;;;;;;;12.50;100.00;101824.50;6208716;23;20047;-86
2022/01/01 10:31:59;;;;;;;11.40;3.78;;;;;;;12.50;100.00;101821.81;6208383;23;20012;-86
2022/01/01 10:34:35;;;;;;;9.75;3.97;;;;;;;12.51;100.00;101810.03;6180531;23;20008;-86
2022/01/01 10:37:03;;;;;;;10.82;4.57;;;;;;;12.53;100.00;101808.88;6179545;23;20016;-87
2022/01/01 10:39:29;;;;;;;12.65;4.18;;;;;;;12.54;100.00;101791.72;6180149;23;20087;-87
2022/01/01 10:42:05;;;;;;;10.38;4.13;;;;;;;12.57;100.00;101793.25;6178356;23;20051;-86
2022/01/01 10:44:36;;;;;;;10.20;4.85;;;;;;;12.59;100.00;101785.88;6206909;23;20028;-86
2022/01/01 10:47:12;;;;;;;9.70;4.45;;;;;;;12.60;100.00;101777.66;6178815;23;20099;-86
2022/01/01 10:52:23;;;;;;;12.65;4.60;;;;;;;12.61;100.00;101789.28;6206918;23;20012;-87
2022/01/01 10:55:06;;;;;;;9.40;4.15;;;;;;;12.62;100.00;101772.94;6207363;23;20360;-86
2022/01/01 10:57:57;;;;;;;9.38;4.30;;;;;;;12.62;100.00;101753.25;6204130;23;20035;-88
2022/01/01 11:00:26;;;;;;;11.50;4.88;;;;;;;12.63;100.00;101765.75;6184281;23;20100;-85
2022/01/01 11:02:54;;;;;;;10.95;4.57;;;;;;;12.64;100.00;101765.56;6182088;23;20012;-86
2022/01/01 11:05:28;;;;;;;12.48;4.65;;;;;;;12.64;100.00;101762.88;6204775;23;20020;-86
2022/01/01 11:07:56;;;;;;;12.68;4.75;;;;;;;12.68;100.00;101782.25;6203897;23;20021;-86
2022/01/01 11:10:23;;;;;;;11.17;4.47;;;;;;;12.71;100.00;101775.72;6180057;23;20088;-88
2022/01/01 11:12:50;;;;;;;9.90;5.63;;;;;;;12.72;100.00;101770.19;6179736;23;20020;-87